sensor_id;sensor_type;location;lat;lon;timestamp;P1;durP1;ratioP1;P2;durP2;ratioP2
64938;SDS011;51453;47.738;7.420;2024-02-16T00:02:17;6.43;;;3.65;;
64938;SDS011;51453;47.738;7.420;2024-02-16T00:04:43;10.00;;;5.50;;
64938;SDS011;51453;47.738;7.420;2024-02-16T00:07:09;11.77;;;7.32;;
64938;SDS011;51453;47.738;7.420;2024-02-16T00:09:34;7.78;;;4.18;;
64938;SDS011;51453;47.738;7.420;2024-02-16T00:12:00;12.32;;;6.72;;
64938;SDS011;51453;47.738;7.420;2024-02-16T00:14:26;11.05;;;6.78;;
64938;SDS011;51453;47.738;7.420;2024-02-16T00:16:52;5.80;;;4.38;;
64938;SDS011;51453;47.738;7.420;2024-02-16T00:19:17;7.15;;;4.15;;
64938;SDS011;51453;47.738;7.420;2024-02-16T00:21:43;4.85;;;3.22;;
64938;SDS011;51453;47.738;7.420;2024-02-16T00:24:09;4.28;;;3.08;;
64938;SDS011;51453;47.738;7.420;2024-02-16T00:26:35;8.52;;;4.90;;
64938;SDS011;51453;47.738;7.420;2024-02-16T00:29:01;6.57;;;3.58;;
64938;SDS011;51453;47.738;7.420;2024-02-16T00:31:26;6.35;;;3.75;;
64938;SDS011;51453;47.738;7.420;2024-02-16T00:33:52;4.32;;;3.45;;
64938;SDS011;51453;47.738;7.420;2024-02-16T00:36:18;6.63;;;3.58;;
64938;SDS011;51453;47.738;7.420;2024-02-16T00:38:43;6.50;;;4.28;;
64938;SDS011;51453;47.738;7.420;2024-02-16T00:41:16;9.20;;;3.13;;
64938;SDS011;51453;47.738;7.420;2024-02-16T00:43:45;4.75;;;3.58;;
64938;SDS011;51453;47.738;7.420;2024-02-16T00:46:10;6.55;;;3.67;;
64938;SDS011;51453;47.738;7.420;2024-02-16T00:48:36;5.93;;;3.22;;
64938;SDS011;51453;47.738;7.420;2024-02-16T00:51:02;5.78;;;3.90;;
64938;SDS011;51453;47.738;7.420;2024-02-16T00:53:28;10.43;;;3.65;;
64938;SDS011;51453;47.738;7.420;2024-02-16T00:55:54;6.00;;;3.35;;
64938;SDS011;51453;47.738;7.420;2024-02-16T00:58:19;6.70;;;3.10;;
64938;SDS011;51453;47.738;7.420;2024-02-16T01:00:45;5.93;;;3.60;;
64938;SDS011;51453;47.738;7.420;2024-02-16T01:03:11;9.93;;;4.20;;
64938;SDS011;51453;47.738;7.420;2024-02-16T01:05:37;6.68;;;4.35;;
64938;SDS011;51453;47.738;7.420;2024-02-16T01:08:05;5.57;;;3.70;;
64938;SDS011;51453;47.738;7.420;2024-02-16T01:10:31;6.93;;;3.67;;
64938;SDS011;51453;47.738;7.420;2024-02-16T01:12:56;5.82;;;3.78;;
64938;SDS011;51453;47.738;7.420;2024-02-16T01:15:22;6.95;;;4.05;;
64938;SDS011;51453;47.738;7.420;2024-02-16T01:17:47;7.00;;;3.45;;
64938;SDS011;51453;47.738;7.420;2024-02-16T01:20:13;6.50;;;3.33;;
64938;SDS011;51453;47.738;7.420;2024-02-16T01:22:39;6.82;;;3.20;;
64938;SDS011;51453;47.738;7.420;2024-02-16T01:25:05;6.60;;;3.60;;
64938;SDS011;51453;47.738;7.420;2024-02-16T01:27:32;4.75;;;3.45;;
64938;SDS011;51453;47.738;7.420;2024-02-16T01:29:58;6.25;;;3.42;;
64938;SDS011;51453;47.738;7.420;2024-02-16T01:32:23;8.20;;;3.80;;
64938;SDS011;51453;47.738;7.420;2024-02-16T01:34:49;8.02;;;3.83;;
64938;SDS011;51453;47.738;7.420;2024-02-16T01:37:15;7.13;;;3.92;;
64938;SDS011;51453;47.738;7.420;2024-02-16T01:39:40;5.43;;;3.80;;
64938;SDS011;51453;47.738;7.420;2024-02-16T01:42:06;5.70;;;3.92;;
64938;SDS011;51453;47.738;7.420;2024-02-16T01:44:31;5.22;;;3.90;;
64938;SDS011;51453;47.738;7.420;2024-02-16T01:46:57;5.20;;;4.00;;
64938;SDS011;51453;47.738;7.420;2024-02-16T01:49:23;5.93;;;4.10;;
64938;SDS011;51453;47.738;7.420;2024-02-16T01:51:48;7.78;;;4.40;;
64938;SDS011;51453;47.738;7.420;2024-02-16T01:54:14;6.28;;;4.03;;
64938;SDS011;51453;47.738;7.420;2024-02-16T01:56:43;4.95;;;4.03;;
64938;SDS011;51453;47.738;7.420;2024-02-16T01:59:09;6.00;;;4.07;;
64938;SDS011;51453;47.738;7.420;2024-02-16T02:01:35;7.35;;;4.20;;
64938;SDS011;51453;47.738;7.420;2024-02-16T02:04:01;6.13;;;4.18;;
64938;SDS011;51453;47.738;7.420;2024-02-16T02:06:27;9.20;;;4.45;;
64938;SDS011;51453;47.738;7.420;2024-02-16T02:08:53;7.85;;;3.90;;
64938;SDS011;51453;47.738;7.420;2024-02-16T02:11:18;6.10;;;4.22;;
64938;SDS011;51453;47.738;7.420;2024-02-16T02:13:44;5.53;;;3.83;;
64938;SDS011;51453;47.738;7.420;2024-02-16T02:16:10;6.88;;;3.97;;
64938;SDS011;51453;47.738;7.420;2024-02-16T02:18:36;7.15;;;4.25;;
64938;SDS011;51453;47.738;7.420;2024-02-16T02:21:02;8.48;;;4.40;;
64938;SDS011;51453;47.738;7.420;2024-02-16T02:23:27;8.80;;;4.47;;
64938;SDS011;51453;47.738;7.420;2024-02-16T02:25:53;7.00;;;4.38;;
64938;SDS011;51453;47.738;7.420;2024-02-16T02:28:19;6.82;;;4.72;;
64938;SDS011;51453;47.738;7.420;2024-02-16T02:30:45;7.85;;;4.10;;
64938;SDS011;51453;47.738;7.420;2024-02-16T02:33:11;5.47;;;4.25;;
64938;SDS011;51453;47.738;7.420;2024-02-16T02:35:38;8.10;;;4.07;;
64938;SDS011;51453;47.738;7.420;2024-02-16T02:38:04;7.25;;;4.53;;
64938;SDS011;51453;47.738;7.420;2024-02-16T02:40:30;7.03;;;4.93;;
64938;SDS011;51453;47.738;7.420;2024-02-16T02:42:57;7.53;;;4.30;;
64938;SDS011;51453;47.738;7.420;2024-02-16T02:45:23;10.57;;;5.00;;
64938;SDS011;51453;47.738;7.420;2024-02-16T02:47:49;8.07;;;4.63;;
64938;SDS011;51453;47.738;7.420;2024-02-16T02:50:16;7.88;;;4.22;;
64938;SDS011;51453;47.738;7.420;2024-02-16T02:52:41;9.52;;;5.00;;
64938;SDS011;51453;47.738;7.420;2024-02-16T02:55:07;6.30;;;4.60;;
64938;SDS011;51453;47.738;7.420;2024-02-16T02:57:33;8.52;;;4.78;;
64938;SDS011;51453;47.738;7.420;2024-02-16T03:00:04;6.72;;;4.25;;
64938;SDS011;51453;47.738;7.420;2024-02-16T03:02:35;9.10;;;4.55;;
64938;SDS011;51453;47.738;7.420;2024-02-16T03:05:02;8.57;;;4.13;;
64938;SDS011;51453;47.738;7.420;2024-02-16T03:07:28;6.68;;;4.65;;
64938;SDS011;51453;47.738;7.420;2024-02-16T03:09:53;9.70;;;4.53;;
64938;SDS011;51453;47.738;7.420;2024-02-16T03:12:19;7.20;;;4.50;;
64938;SDS011;51453;47.738;7.420;2024-02-16T03:14:45;7.78;;;4.57;;
64938;SDS011;51453;47.738;7.420;2024-02-16T03:17:10;5.93;;;4.50;;
64938;SDS011;51453;47.738;7.420;2024-02-16T03:19:36;7.53;;;4.88;;
64938;SDS011;51453;47.738;7.420;2024-02-16T03:22:01;6.18;;;4.07;;
64938;SDS011;51453;47.738;7.420;2024-02-16T03:24:27;7.60;;;4.72;;
64938;SDS011;51453;47.738;7.420;2024-02-16T03:26:53;7.63;;;4.72;;
64938;SDS011;51453;47.738;7.420;2024-02-16T03:29:18;7.43;;;4.63;;
64938;SDS011;51453;47.738;7.420;2024-02-16T03:31:44;8.18;;;4.47;;
64938;SDS011;51453;47.738;7.420;2024-02-16T03:34:10;6.30;;;4.40;;
64938;SDS011;51453;47.738;7.420;2024-02-16T03:36:35;10.23;;;4.22;;
64938;SDS011;51453;47.738;7.420;2024-02-16T03:39:01;6.07;;;4.20;;
64938;SDS011;51453;47.738;7.420;2024-02-16T03:41:27;7.43;;;4.38;;
64938;SDS011;51453;47.738;7.420;2024-02-16T03:43:53;7.55;;;4.88;;
64938;SDS011;51453;47.738;7.420;2024-02-16T03:46:19;7.38;;;4.38;;
64938;SDS011;51453;47.738;7.420;2024-02-16T03:48:45;6.85;;;4.38;;
64938;SDS011;51453;47.738;7.420;2024-02-16T03:51:11;7.25;;;4.20;;
64938;SDS011;51453;47.738;7.420;2024-02-16T03:53:36;4.80;;;4.13;;
64938;SDS011;51453;47.738;7.420;2024-02-16T03:56:02;5.53;;;4.20;;
64938;SDS011;51453;47.738;7.420;2024-02-16T03:58:28;7.32;;;4.57;;
64938;SDS011;51453;47.738;7.420;2024-02-16T04:00:54;7.95;;;4.30;;
64938;SDS011;51453;47.738;7.420;2024-02-16T04:03:19;6.32;;;4.60;;
64938;SDS011;51453;47.738;7.420;2024-02-16T04:05:45;6.68;;;4.43;;
64938;SDS011;51453;47.738;7.420;2024-02-16T04:08:11;6.43;;;4.05;;
64938;SDS011;51453;47.738;7.420;2024-02-16T04:10:36;6.60;;;4.65;;
64938;SDS011;51453;47.738;7.420;2024-02-16T04:13:02;6.57;;;4.25;;
64938;SDS011;51453;47.738;7.420;2024-02-16T04:15:28;8.30;;;4.55;;
64938;SDS011;51453;47.738;7.420;2024-02-16T04:17:54;6.68;;;5.25;;
64938;SDS011;51453;47.738;7.420;2024-02-16T04:20:19;7.82;;;5.00;;
64938;SDS011;51453;47.738;7.420;2024-02-16T04:22:45;11.32;;;5.13;;
64938;SDS011;51453;47.738;7.420;2024-02-16T04:25:11;7.00;;;4.80;;
64938;SDS011;51453;47.738;7.420;2024-02-16T04:27:37;5.85;;;4.30;;
64938;SDS011;51453;47.738;7.420;2024-02-16T04:30:03;6.57;;;4.72;;
64938;SDS011;51453;47.738;7.420;2024-02-16T04:32:30;8.90;;;5.00;;
64938;SDS011;51453;47.738;7.420;2024-02-16T04:34:56;8.38;;;5.53;;
64938;SDS011;51453;47.738;7.420;2024-02-16T04:37:22;6.65;;;4.90;;
64938;SDS011;51453;47.738;7.420;2024-02-16T04:39:48;10.63;;;5.85;;
64938;SDS011;51453;47.738;7.420;2024-02-16T04:42:14;8.98;;;5.45;;
64938;SDS011;51453;47.738;7.420;2024-02-16T04:44:40;8.18;;;5.30;;
64938;SDS011;51453;47.738;7.420;2024-02-16T04:47:05;10.73;;;6.13;;
64938;SDS011;51453;47.738;7.420;2024-02-16T04:49:31;9.30;;;5.47;;
64938;SDS011;51453;47.738;7.420;2024-02-16T04:51:57;9.88;;;5.50;;
64938;SDS011;51453;47.738;7.420;2024-02-16T04:54:23;8.50;;;5.60;;
64938;SDS011;51453;47.738;7.420;2024-02-16T04:56:49;9.07;;;5.90;;
64938;SDS011;51453;47.738;7.420;2024-02-16T04:59:15;10.38;;;5.45;;
64938;SDS011;51453;47.738;7.420;2024-02-16T05:01:42;8.13;;;5.60;;
64938;SDS011;51453;47.738;7.420;2024-02-16T05:04:09;7.18;;;5.38;;
64938;SDS011;51453;47.738;7.420;2024-02-16T05:06:40;7.55;;;5.80;;
64938;SDS011;51453;47.738;7.420;2024-02-16T05:09:06;12.50;;;6.20;;
64938;SDS011;51453;47.738;7.420;2024-02-16T05:11:32;8.32;;;6.07;;
64938;SDS011;51453;47.738;7.420;2024-02-16T05:13:57;10.23;;;5.88;;
64938;SDS011;51453;47.738;7.420;2024-02-16T05:16:23;9.27;;;5.93;;
64938;SDS011;51453;47.738;7.420;2024-02-16T05:18:50;12.07;;;6.05;;
64938;SDS011;51453;47.738;7.420;2024-02-16T05:21:16;11.35;;;6.13;;
64938;SDS011;51453;47.738;7.420;2024-02-16T05:23:41;10.20;;;5.68;;
64938;SDS011;51453;47.738;7.420;2024-02-16T05:26:07;10.02;;;6.25;;
64938;SDS011;51453;47.738;7.420;2024-02-16T05:28:33;10.15;;;5.63;;
64938;SDS011;51453;47.738;7.420;2024-02-16T05:31:02;10.80;;;6.28;;
64938;SDS011;51453;47.738;7.420;2024-02-16T05:33:39;10.32;;;5.78;;
64938;SDS011;51453;47.738;7.420;2024-02-16T05:36:05;8.60;;;5.80;;
64938;SDS011;51453;47.738;7.420;2024-02-16T05:38:31;7.32;;;5.80;;
64938;SDS011;51453;47.738;7.420;2024-02-16T05:41:00;10.95;;;5.95;;
64938;SDS011;51453;47.738;7.420;2024-02-16T05:43:25;10.77;;;5.97;;
64938;SDS011;51453;47.738;7.420;2024-02-16T05:45:51;9.15;;;5.90;;
64938;SDS011;51453;47.738;7.420;2024-02-16T05:48:17;10.90;;;5.75;;
64938;SDS011;51453;47.738;7.420;2024-02-16T05:50:42;12.32;;;5.85;;
64938;SDS011;51453;47.738;7.420;2024-02-16T05:53:10;12.77;;;6.43;;
64938;SDS011;51453;47.738;7.420;2024-02-16T05:55:36;10.10;;;5.85;;
64938;SDS011;51453;47.738;7.420;2024-02-16T05:58:02;9.23;;;5.90;;
64938;SDS011;51453;47.738;7.420;2024-02-16T06:00:31;11.48;;;5.97;;
64938;SDS011;51453;47.738;7.420;2024-02-16T06:02:58;11.15;;;5.30;;
64938;SDS011;51453;47.738;7.420;2024-02-16T06:05:24;9.20;;;5.75;;
64938;SDS011;51453;47.738;7.420;2024-02-16T06:07:49;10.45;;;5.53;;
64938;SDS011;51453;47.738;7.420;2024-02-16T06:10:15;9.65;;;5.70;;
64938;SDS011;51453;47.738;7.420;2024-02-16T06:12:41;9.60;;;6.32;;
64938;SDS011;51453;47.738;7.420;2024-02-16T06:15:06;8.82;;;5.93;;
64938;SDS011;51453;47.738;7.420;2024-02-16T06:17:32;10.40;;;6.40;;
64938;SDS011;51453;47.738;7.420;2024-02-16T06:19:58;10.52;;;6.55;;
64938;SDS011;51453;47.738;7.420;2024-02-16T06:22:24;10.68;;;5.60;;
64938;SDS011;51453;47.738;7.420;2024-02-16T06:24:49;9.57;;;6.38;;
64938;SDS011;51453;47.738;7.420;2024-02-16T06:27:15;9.07;;;6.25;;
64938;SDS011;51453;47.738;7.420;2024-02-16T06:29:41;13.15;;;6.20;;
64938;SDS011;51453;47.738;7.420;2024-02-16T06:32:06;9.25;;;6.07;;
64938;SDS011;51453;47.738;7.420;2024-02-16T06:34:32;7.32;;;6.03;;
64938;SDS011;51453;47.738;7.420;2024-02-16T06:36:58;8.73;;;6.53;;
64938;SDS011;51453;47.738;7.420;2024-02-16T06:39:23;9.88;;;6.45;;
64938;SDS011;51453;47.738;7.420;2024-02-16T06:41:49;13.30;;;6.32;;
64938;SDS011;51453;47.738;7.420;2024-02-16T06:44:15;10.60;;;6.50;;
64938;SDS011;51453;47.738;7.420;2024-02-16T06:46:41;8.15;;;6.10;;
64938;SDS011;51453;47.738;7.420;2024-02-16T06:49:07;9.68;;;5.72;;
64938;SDS011;51453;47.738;7.420;2024-02-16T06:51:33;10.68;;;6.00;;
64938;SDS011;51453;47.738;7.420;2024-02-16T06:53:59;9.93;;;6.18;;
64938;SDS011;51453;47.738;7.420;2024-02-16T06:56:25;10.35;;;6.18;;
64938;SDS011;51453;47.738;7.420;2024-02-16T06:58:51;14.80;;;6.43;;
64938;SDS011;51453;47.738;7.420;2024-02-16T07:01:17;11.90;;;6.47;;
64938;SDS011;51453;47.738;7.420;2024-02-16T07:03:45;9.25;;;6.03;;
64938;SDS011;51453;47.738;7.420;2024-02-16T07:06:12;12.07;;;6.35;;
64938;SDS011;51453;47.738;7.420;2024-02-16T07:08:42;13.88;;;7.50;;
64938;SDS011;51453;47.738;7.420;2024-02-16T07:11:08;12.68;;;6.20;;
64938;SDS011;51453;47.738;7.420;2024-02-16T07:13:38;11.13;;;6.88;;
64938;SDS011;51453;47.738;7.420;2024-02-16T07:16:04;15.13;;;5.90;;
64938;SDS011;51453;47.738;7.420;2024-02-16T07:18:32;8.45;;;5.60;;
64938;SDS011;51453;47.738;7.420;2024-02-16T07:20:58;12.98;;;6.00;;
64938;SDS011;51453;47.738;7.420;2024-02-16T07:23:24;11.45;;;6.60;;
64938;SDS011;51453;47.738;7.420;2024-02-16T07:25:50;12.20;;;5.80;;
64938;SDS011;51453;47.738;7.420;2024-02-16T07:28:16;11.13;;;6.25;;
64938;SDS011;51453;47.738;7.420;2024-02-16T07:30:42;9.77;;;5.85;;
64938;SDS011;51453;47.738;7.420;2024-02-16T07:33:07;9.63;;;5.07;;
64938;SDS011;51453;47.738;7.420;2024-02-16T07:35:34;9.88;;;5.63;;
64938;SDS011;51453;47.738;7.420;2024-02-16T07:38:05;7.10;;;5.00;;
64938;SDS011;51453;47.738;7.420;2024-02-16T07:40:32;10.13;;;5.25;;
64938;SDS011;51453;47.738;7.420;2024-02-16T07:42:58;10.18;;;5.05;;
64938;SDS011;51453;47.738;7.420;2024-02-16T07:45:23;6.47;;;4.65;;
64938;SDS011;51453;47.738;7.420;2024-02-16T07:47:49;9.77;;;5.13;;
64938;SDS011;51453;47.738;7.420;2024-02-16T07:50:19;7.28;;;4.93;;
64938;SDS011;51453;47.738;7.420;2024-02-16T07:52:48;11.05;;;5.30;;
64938;SDS011;51453;47.738;7.420;2024-02-16T07:55:15;8.13;;;5.00;;
64938;SDS011;51453;47.738;7.420;2024-02-16T07:57:45;6.53;;;4.80;;
64938;SDS011;51453;47.738;7.420;2024-02-16T08:00:11;7.78;;;4.35;;
64938;SDS011;51453;47.738;7.420;2024-02-16T08:02:37;6.45;;;4.10;;
64938;SDS011;51453;47.738;7.420;2024-02-16T08:05:04;8.23;;;4.07;;
64938;SDS011;51453;47.738;7.420;2024-02-16T08:07:31;11.23;;;4.30;;
64938;SDS011;51453;47.738;7.420;2024-02-16T08:09:56;6.63;;;4.13;;
64938;SDS011;51453;47.738;7.420;2024-02-16T08:12:22;6.38;;;4.53;;
64938;SDS011;51453;47.738;7.420;2024-02-16T08:14:48;8.73;;;4.63;;
64938;SDS011;51453;47.738;7.420;2024-02-16T08:17:14;9.10;;;4.30;;
64938;SDS011;51453;47.738;7.420;2024-02-16T08:19:39;6.65;;;3.90;;
64938;SDS011;51453;47.738;7.420;2024-02-16T08:22:06;7.25;;;4.18;;
64938;SDS011;51453;47.738;7.420;2024-02-16T08:24:35;7.95;;;4.50;;
64938;SDS011;51453;47.738;7.420;2024-02-16T08:27:01;7.22;;;4.85;;
64938;SDS011;51453;47.738;7.420;2024-02-16T08:29:29;6.93;;;4.28;;
64938;SDS011;51453;47.738;7.420;2024-02-16T08:31:55;8.25;;;4.30;;
64938;SDS011;51453;47.738;7.420;2024-02-16T08:34:21;10.35;;;4.15;;
64938;SDS011;51453;47.738;7.420;2024-02-16T08:36:47;9.00;;;4.43;;
64938;SDS011;51453;47.738;7.420;2024-02-16T08:39:14;5.53;;;4.13;;
64938;SDS011;51453;47.738;7.420;2024-02-16T08:41:41;7.38;;;4.30;;
64938;SDS011;51453;47.738;7.420;2024-02-16T08:44:07;9.15;;;4.22;;
64938;SDS011;51453;47.738;7.420;2024-02-16T08:46:38;6.97;;;4.22;;
64938;SDS011;51453;47.738;7.420;2024-02-16T08:49:04;10.88;;;4.38;;
64938;SDS011;51453;47.738;7.420;2024-02-16T08:51:33;7.55;;;4.65;;
64938;SDS011;51453;47.738;7.420;2024-02-16T08:53:59;8.68;;;4.70;;
64938;SDS011;51453;47.738;7.420;2024-02-16T08:56:26;8.10;;;4.55;;
64938;SDS011;51453;47.738;7.420;2024-02-16T08:58:53;16.50;;;5.15;;
64938;SDS011;51453;47.738;7.420;2024-02-16T09:01:29;8.27;;;4.85;;
64938;SDS011;51453;47.738;7.420;2024-02-16T09:03:58;10.82;;;4.88;;
64938;SDS011;51453;47.738;7.420;2024-02-16T09:06:25;9.38;;;5.13;;
64938;SDS011;51453;47.738;7.420;2024-02-16T09:08:51;11.45;;;4.75;;
64938;SDS011;51453;47.738;7.420;2024-02-16T09:11:17;8.10;;;4.50;;
64938;SDS011;51453;47.738;7.420;2024-02-16T09:13:43;11.98;;;5.03;;
64938;SDS011;51453;47.738;7.420;2024-02-16T09:16:08;8.68;;;4.82;;
64938;SDS011;51453;47.738;7.420;2024-02-16T09:18:34;10.55;;;5.40;;
64938;SDS011;51453;47.738;7.420;2024-02-16T09:21:02;12.68;;;5.15;;
64938;SDS011;51453;47.738;7.420;2024-02-16T09:23:27;8.43;;;4.55;;
64938;SDS011;51453;47.738;7.420;2024-02-16T09:25:53;9.68;;;4.90;;
64938;SDS011;51453;47.738;7.420;2024-02-16T09:28:19;7.07;;;4.60;;
64938;SDS011;51453;47.738;7.420;2024-02-16T09:30:45;6.85;;;4.18;;
64938;SDS011;51453;47.738;7.420;2024-02-16T09:33:11;11.52;;;5.15;;
64938;SDS011;51453;47.738;7.420;2024-02-16T09:35:38;6.65;;;5.00;;
64938;SDS011;51453;47.738;7.420;2024-02-16T09:38:04;8.40;;;5.20;;
64938;SDS011;51453;47.738;7.420;2024-02-16T09:40:30;8.85;;;4.97;;
64938;SDS011;51453;47.738;7.420;2024-02-16T09:42:56;10.70;;;4.72;;
64938;SDS011;51453;47.738;7.420;2024-02-16T09:45:23;17.67;;;4.95;;
64938;SDS011;51453;47.738;7.420;2024-02-16T09:47:51;10.48;;;4.05;;
64938;SDS011;51453;47.738;7.420;2024-02-16T09:50:19;10.70;;;4.78;;
64938;SDS011;51453;47.738;7.420;2024-02-16T09:52:48;6.03;;;4.10;;
64938;SDS011;51453;47.738;7.420;2024-02-16T09:55:15;10.75;;;4.38;;
64938;SDS011;51453;47.738;7.420;2024-02-16T09:57:42;11.40;;;4.53;;
64938;SDS011;51453;47.738;7.420;2024-02-16T10:00:09;7.82;;;4.30;;
64938;SDS011;51453;47.738;7.420;2024-02-16T10:05:29;10.20;;;4.80;;
64938;SDS011;51453;47.738;7.420;2024-02-16T10:07:55;9.32;;;4.30;;
64938;SDS011;51453;47.738;7.420;2024-02-16T10:10:25;12.52;;;5.13;;
64938;SDS011;51453;47.738;7.420;2024-02-16T10:13:04;9.85;;;5.05;;
64938;SDS011;51453;47.738;7.420;2024-02-16T10:15:31;13.52;;;5.38;;
64938;SDS011;51453;47.738;7.420;2024-02-16T10:18:06;8.43;;;4.55;;
64938;SDS011;51453;47.738;7.420;2024-02-16T10:20:32;10.57;;;4.60;;
64938;SDS011;51453;47.738;7.420;2024-02-16T10:23:05;7.15;;;4.18;;
64938;SDS011;51453;47.738;7.420;2024-02-16T10:25:35;5.00;;;2.50;;
64938;SDS011;51453;47.738;7.420;2024-02-16T10:28:06;5.53;;;2.20;;
64938;SDS011;51453;47.738;7.420;2024-02-16T10:30:36;3.97;;;1.70;;
64938;SDS011;51453;47.738;7.420;2024-02-16T10:33:07;5.97;;;1.85;;
64938;SDS011;51453;47.738;7.420;2024-02-16T10:35:34;4.38;;;2.03;;
64938;SDS011;51453;47.738;7.420;2024-02-16T10:38:04;5.55;;;1.80;;
64938;SDS011;51453;47.738;7.420;2024-02-16T10:40:38;6.18;;;2.22;;
64938;SDS011;51453;47.738;7.420;2024-02-16T10:43:05;7.40;;;2.25;;
64938;SDS011;51453;47.738;7.420;2024-02-16T10:45:33;6.15;;;2.33;;
64938;SDS011;51453;47.738;7.420;2024-02-16T10:48:00;4.60;;;1.60;;
64938;SDS011;51453;47.738;7.420;2024-02-16T10:50:26;3.75;;;1.70;;
64938;SDS011;51453;47.738;7.420;2024-02-16T10:52:52;7.90;;;2.17;;
64938;SDS011;51453;47.738;7.420;2024-02-16T10:55:19;4.25;;;2.28;;
64938;SDS011;51453;47.738;7.420;2024-02-16T10:57:45;4.85;;;2.00;;
64938;SDS011;51453;47.738;7.420;2024-02-16T11:00:11;4.25;;;2.03;;
64938;SDS011;51453;47.738;7.420;2024-02-16T11:02:53;4.60;;;2.10;;
64938;SDS011;51453;47.738;7.420;2024-02-16T11:05:34;4.63;;;1.88;;
64938;SDS011;51453;47.738;7.420;2024-02-16T11:08:04;4.30;;;1.70;;
64938;SDS011;51453;47.738;7.420;2024-02-16T11:10:36;3.90;;;1.73;;
64938;SDS011;51453;47.738;7.420;2024-02-16T11:13:02;4.75;;;2.28;;
64938;SDS011;51453;47.738;7.420;2024-02-16T11:15:32;7.63;;;2.50;;
64938;SDS011;51453;47.738;7.420;2024-02-16T11:18:02;4.25;;;2.28;;
64938;SDS011;51453;47.738;7.420;2024-02-16T11:20:29;4.63;;;2.30;;
64938;SDS011;51453;47.738;7.420;2024-02-16T11:23:06;4.90;;;2.60;;
64938;SDS011;51453;47.738;7.420;2024-02-16T11:25:34;8.18;;;2.35;;
64938;SDS011;51453;47.738;7.420;2024-02-16T11:28:01;8.75;;;2.80;;
64938;SDS011;51453;47.738;7.420;2024-02-16T11:30:28;4.10;;;2.08;;
64938;SDS011;51453;47.738;7.420;2024-02-16T11:32:57;9.30;;;2.40;;
64938;SDS011;51453;47.738;7.420;2024-02-16T11:35:23;4.95;;;2.00;;
64938;SDS011;51453;47.738;7.420;2024-02-16T11:37:48;6.70;;;2.38;;
64938;SDS011;51453;47.738;7.420;2024-02-16T11:40:14;7.45;;;2.40;;
64938;SDS011;51453;47.738;7.420;2024-02-16T11:42:40;8.13;;;2.70;;
64938;SDS011;51453;47.738;7.420;2024-02-16T11:45:10;4.60;;;1.75;;
64938;SDS011;51453;47.738;7.420;2024-02-16T11:47:40;5.45;;;1.80;;
64938;SDS011;51453;47.738;7.420;2024-02-16T11:50:07;6.03;;;1.80;;
64938;SDS011;51453;47.738;7.420;2024-02-16T11:52:36;3.25;;;1.52;;
64938;SDS011;51453;47.738;7.420;2024-02-16T11:55:04;3.28;;;1.45;;
64938;SDS011;51453;47.738;7.420;2024-02-16T11:57:33;4.93;;;1.50;;
64938;SDS011;51453;47.738;7.420;2024-02-16T12:00:00;2.67;;;1.60;;
64938;SDS011;51453;47.738;7.420;2024-02-16T12:02:33;5.35;;;1.65;;
64938;SDS011;51453;47.738;7.420;2024-02-16T12:05:02;7.00;;;1.70;;
64938;SDS011;51453;47.738;7.420;2024-02-16T12:07:29;2.97;;;1.38;;
64938;SDS011;51453;47.738;7.420;2024-02-16T12:09:59;2.92;;;1.50;;
64938;SDS011;51453;47.738;7.420;2024-02-16T12:12:25;5.40;;;1.70;;
64938;SDS011;51453;47.738;7.420;2024-02-16T12:14:52;3.92;;;1.60;;
64938;SDS011;51453;47.738;7.420;2024-02-16T12:17:19;2.53;;;1.38;;
64938;SDS011;51453;47.738;7.420;2024-02-16T12:19:45;5.13;;;1.65;;
64938;SDS011;51453;47.738;7.420;2024-02-16T12:22:16;3.72;;;1.60;;
64938;SDS011;51453;47.738;7.420;2024-02-16T12:24:45;6.53;;;1.63;;
64938;SDS011;51453;47.738;7.420;2024-02-16T12:27:12;5.88;;;1.83;;
64938;SDS011;51453;47.738;7.420;2024-02-16T12:29:40;4.07;;;1.50;;
64938;SDS011;51453;47.738;7.420;2024-02-16T12:32:06;2.10;;;1.10;;
64938;SDS011;51453;47.738;7.420;2024-02-16T12:34:34;6.05;;;1.30;;
64938;SDS011;51453;47.738;7.420;2024-02-16T12:37:03;4.90;;;1.60;;
64938;SDS011;51453;47.738;7.420;2024-02-16T12:39:33;3.50;;;1.52;;
64938;SDS011;51453;47.738;7.420;2024-02-16T12:41:59;4.90;;;1.75;;
64938;SDS011;51453;47.738;7.420;2024-02-16T12:44:24;4.63;;;1.60;;
64938;SDS011;51453;47.738;7.420;2024-02-16T12:46:50;4.13;;;1.85;;
64938;SDS011;51453;47.738;7.420;2024-02-16T12:49:16;5.78;;;1.52;;
64938;SDS011;51453;47.738;7.420;2024-02-16T12:51:41;8.63;;;2.05;;
64938;SDS011;51453;47.738;7.420;2024-02-16T12:54:07;4.57;;;1.70;;
64938;SDS011;51453;47.738;7.420;2024-02-16T12:56:38;5.68;;;1.70;;
64938;SDS011;51453;47.738;7.420;2024-02-16T12:59:05;3.13;;;1.40;;
64938;SDS011;51453;47.738;7.420;2024-02-16T13:01:31;3.60;;;1.50;;
64938;SDS011;51453;47.738;7.420;2024-02-16T13:03:56;7.82;;;1.75;;
64938;SDS011;51453;47.738;7.420;2024-02-16T13:06:22;2.80;;;1.75;;
64938;SDS011;51453;47.738;7.420;2024-02-16T13:08:48;4.30;;;1.77;;
64938;SDS011;51453;47.738;7.420;2024-02-16T13:11:13;3.65;;;1.60;;
64938;SDS011;51453;47.738;7.420;2024-02-16T13:13:39;5.43;;;1.98;;
64938;SDS011;51453;47.738;7.420;2024-02-16T13:16:05;2.60;;;1.40;;
64938;SDS011;51453;47.738;7.420;2024-02-16T13:18:31;2.83;;;1.10;;
64938;SDS011;51453;47.738;7.420;2024-02-16T13:20:57;7.50;;;1.50;;
64938;SDS011;51453;47.738;7.420;2024-02-16T13:23:22;3.72;;;1.42;;
64938;SDS011;51453;47.738;7.420;2024-02-16T13:25:48;4.32;;;1.85;;
64938;SDS011;51453;47.738;7.420;2024-02-16T13:28:13;5.75;;;1.20;;
64938;SDS011;51453;47.738;7.420;2024-02-16T13:30:41;3.08;;;1.50;;
64938;SDS011;51453;47.738;7.420;2024-02-16T13:33:07;6.75;;;1.90;;
64938;SDS011;51453;47.738;7.420;2024-02-16T13:35:34;5.55;;;1.90;;
64938;SDS011;51453;47.738;7.420;2024-02-16T13:38:01;3.38;;;1.50;;
64938;SDS011;51453;47.738;7.420;2024-02-16T13:40:26;3.47;;;1.48;;
64938;SDS011;51453;47.738;7.420;2024-02-16T13:42:52;4.65;;;1.58;;
64938;SDS011;51453;47.738;7.420;2024-02-16T13:45:24;5.25;;;1.90;;
64938;SDS011;51453;47.738;7.420;2024-02-16T13:47:51;5.72;;;2.00;;
64938;SDS011;51453;47.738;7.420;2024-02-16T13:50:16;5.95;;;1.50;;
64938;SDS011;51453;47.738;7.420;2024-02-16T13:52:42;5.10;;;1.80;;
64938;SDS011;51453;47.738;7.420;2024-02-16T13:55:08;4.63;;;1.90;;
64938;SDS011;51453;47.738;7.420;2024-02-16T13:57:33;4.78;;;2.10;;
64938;SDS011;51453;47.738;7.420;2024-02-16T13:59:59;5.03;;;1.98;;
64938;SDS011;51453;47.738;7.420;2024-02-16T14:02:25;5.57;;;1.70;;
64938;SDS011;51453;47.738;7.420;2024-02-16T14:04:50;6.32;;;1.85;;
64938;SDS011;51453;47.738;7.420;2024-02-16T14:07:17;3.28;;;1.52;;
64938;SDS011;51453;47.738;7.420;2024-02-16T14:09:43;9.77;;;2.13;;
64938;SDS011;51453;47.738;7.420;2024-02-16T14:12:08;8.02;;;1.75;;
64938;SDS011;51453;47.738;7.420;2024-02-16T14:55:39;10.18;;;2.00;;
64938;SDS011;51453;47.738;7.420;2024-02-16T14:58:05;5.50;;;1.70;;
64938;SDS011;51453;47.738;7.420;2024-02-16T15:00:30;4.97;;;1.55;;
64938;SDS011;51453;47.738;7.420;2024-02-16T15:02:56;4.97;;;2.15;;
64938;SDS011;51453;47.738;7.420;2024-02-16T15:05:21;4.15;;;1.60;;
64938;SDS011;51453;47.738;7.420;2024-02-16T15:07:47;6.63;;;2.00;;
64938;SDS011;51453;47.738;7.420;2024-02-16T15:10:12;5.32;;;1.42;;
64938;SDS011;51453;47.738;7.420;2024-02-16T15:12:38;5.15;;;1.65;;
64938;SDS011;51453;47.738;7.420;2024-02-16T15:15:05;3.90;;;1.45;;
64938;SDS011;51453;47.738;7.420;2024-02-16T15:17:31;3.65;;;1.70;;
64938;SDS011;51453;47.738;7.420;2024-02-16T15:19:57;4.97;;;1.58;;
64938;SDS011;51453;47.738;7.420;2024-02-16T15:22:22;3.80;;;1.48;;
64938;SDS011;51453;47.738;7.420;2024-02-16T15:24:48;5.70;;;1.60;;
64938;SDS011;51453;47.738;7.420;2024-02-16T15:27:13;3.20;;;1.80;;